sensor_id;sensor_type;location;lat;lon;timestamp;P1;durP1;ratioP1;P2;durP2;ratioP2
48911;SDS011;34722;52.108;5.044;2023-02-28T00:01:08;6.97;;;2.97;;
48911;SDS011;34722;52.108;5.044;2023-02-28T00:03:36;5.72;;;3.05;;
48911;SDS011;34722;52.108;5.044;2023-02-28T00:06:04;5.10;;;3.00;;
48911;SDS011;34722;52.108;5.044;2023-02-28T00:08:31;5.80;;;2.30;;
48911;SDS011;34722;52.108;5.044;2023-02-28T00:11:00;7.82;;;3.03;;
48911;SDS011;34722;52.108;5.044;2023-02-28T00:13:26;6.78;;;3.13;;
48911;SDS011;34722;52.108;5.044;2023-02-28T00:16:05;5.68;;;2.70;;
48911;SDS011;34722;52.108;5.044;2023-02-28T00:18:36;9.57;;;3.58;;
48911;SDS011;34722;52.108;5.044;2023-02-28T00:21:03;9.15;;;3.08;;
48911;SDS011;34722;52.108;5.044;2023-02-28T00:23:29;9.65;;;2.95;;
48911;SDS011;34722;52.108;5.044;2023-02-28T00:25:55;4.35;;;2.83;;
48911;SDS011;34722;52.108;5.044;2023-02-28T00:28:21;7.47;;;3.50;;
48911;SDS011;34722;52.108;5.044;2023-02-28T00:30:47;6.38;;;3.20;;
48911;SDS011;34722;52.108;5.044;2023-02-28T00:33:17;6.07;;;2.85;;
48911;SDS011;34722;52.108;5.044;2023-02-28T00:35:43;10.13;;;3.60;;
48911;SDS011;34722;52.108;5.044;2023-02-28T00:41:02;12.32;;;3.58;;
48911;SDS011;34722;52.108;5.044;2023-02-28T00:46:17;6.70;;;3.20;;
48911;SDS011;34722;52.108;5.044;2023-02-28T00:48:42;7.60;;;3.30;;
48911;SDS011;34722;52.108;5.044;2023-02-28T00:51:08;6.70;;;3.53;;
48911;SDS011;34722;52.108;5.044;2023-02-28T00:53:34;7.03;;;3.45;;
48911;SDS011;34722;52.108;5.044;2023-02-28T00:56:00;7.90;;;3.40;;
48911;SDS011;34722;52.108;5.044;2023-02-28T00:58:26;6.90;;;3.50;;
48911;SDS011;34722;52.108;5.044;2023-02-28T01:00:52;6.20;;;3.17;;
48911;SDS011;34722;52.108;5.044;2023-02-28T01:03:27;8.88;;;3.40;;
48911;SDS011;34722;52.108;5.044;2023-02-28T01:05:53;9.18;;;4.20;;
48911;SDS011;34722;52.108;5.044;2023-02-28T01:08:37;6.55;;;3.13;;
48911;SDS011;34722;52.108;5.044;2023-02-28T01:11:10;7.15;;;3.15;;
48911;SDS011;34722;52.108;5.044;2023-02-28T01:13:37;10.23;;;3.35;;
48911;SDS011;34722;52.108;5.044;2023-02-28T01:16:02;6.03;;;3.08;;
48911;SDS011;34722;52.108;5.044;2023-02-28T01:18:28;9.32;;;3.30;;
48911;SDS011;34722;52.108;5.044;2023-02-28T01:20:55;9.75;;;3.53;;
48911;SDS011;34722;52.108;5.044;2023-02-28T01:23:21;6.88;;;3.53;;
48911;SDS011;34722;52.108;5.044;2023-02-28T01:28:23;6.38;;;3.30;;
48911;SDS011;34722;52.108;5.044;2023-02-28T01:30:49;8.18;;;3.50;;
48911;SDS011;34722;52.108;5.044;2023-02-28T01:33:16;7.30;;;3.78;;
48911;SDS011;34722;52.108;5.044;2023-02-28T01:35:42;7.15;;;3.03;;
48911;SDS011;34722;52.108;5.044;2023-02-28T01:38:08;5.35;;;3.08;;
48911;SDS011;34722;52.108;5.044;2023-02-28T01:40:34;6.10;;;3.72;;
48911;SDS011;34722;52.108;5.044;2023-02-28T01:43:00;10.80;;;4.93;;
48911;SDS011;34722;52.108;5.044;2023-02-28T01:45:29;8.63;;;2.97;;
48911;SDS011;34722;52.108;5.044;2023-02-28T01:48:24;8.38;;;3.60;;
48911;SDS011;34722;52.108;5.044;2023-02-28T01:51:38;10.13;;;3.40;;
48911;SDS011;34722;52.108;5.044;2023-02-28T01:54:25;5.22;;;3.05;;
48911;SDS011;34722;52.108;5.044;2023-02-28T01:57:05;8.52;;;3.05;;
48911;SDS011;34722;52.108;5.044;2023-02-28T02:02:38;10.52;;;3.22;;
48911;SDS011;34722;52.108;5.044;2023-02-28T02:05:19;9.48;;;3.45;;
48911;SDS011;34722;52.108;5.044;2023-02-28T02:13:52;9.57;;;3.45;;
48911;SDS011;34722;52.108;5.044;2023-02-28T02:27:24;13.82;;;3.90;;
48911;SDS011;34722;52.108;5.044;2023-02-28T04:06:23;9.35;;;5.18;;
48911;SDS011;34722;52.108;5.044;2023-02-28T04:08:49;9.20;;;4.93;;
48911;SDS011;34722;52.108;5.044;2023-02-28T09:03:49;9.95;;;7.38;;
48911;SDS011;34722;52.108;5.044;2023-02-28T09:06:17;11.13;;;7.20;;
48911;SDS011;34722;52.108;5.044;2023-02-28T09:08:44;14.35;;;8.32;;
48911;SDS011;34722;52.108;5.044;2023-02-28T09:11:10;14.35;;;8.18;;
48911;SDS011;34722;52.108;5.044;2023-02-28T09:13:36;11.80;;;7.30;;
48911;SDS011;34722;52.108;5.044;2023-02-28T09:16:04;12.43;;;7.78;;
48911;SDS011;34722;52.108;5.044;2023-02-28T09:18:34;12.48;;;7.13;;
48911;SDS011;34722;52.108;5.044;2023-02-28T09:21:02;12.30;;;7.18;;
48911;SDS011;34722;52.108;5.044;2023-02-28T09:23:29;19.02;;;6.88;;
48911;SDS011;34722;52.108;5.044;2023-02-28T09:25:55;16.15;;;6.50;;
48911;SDS011;34722;52.108;5.044;2023-02-28T09:28:22;10.10;;;6.57;;
48911;SDS011;34722;52.108;5.044;2023-02-28T09:30:49;9.85;;;6.35;;
48911;SDS011;34722;52.108;5.044;2023-02-28T09:33:17;8.85;;;5.28;;
48911;SDS011;34722;52.108;5.044;2023-02-28T09:35:50;7.47;;;4.90;;
48911;SDS011;34722;52.108;5.044;2023-02-28T09:38:22;6.10;;;3.90;;
48911;SDS011;34722;52.108;5.044;2023-02-28T09:41:01;5.80;;;3.78;;
48911;SDS011;34722;52.108;5.044;2023-02-28T09:43:34;4.57;;;3.67;;
48911;SDS011;34722;52.108;5.044;2023-02-28T09:46:15;6.07;;;4.00;;
48911;SDS011;34722;52.108;5.044;2023-02-28T09:49:04;4.75;;;3.67;;
48911;SDS011;34722;52.108;5.044;2023-02-28T09:54:18;5.80;;;3.88;;
48911;SDS011;34722;52.108;5.044;2023-02-28T09:56:48;7.88;;;3.63;;
48911;SDS011;34722;52.108;5.044;2023-02-28T09:59:25;4.50;;;3.88;;
48911;SDS011;34722;52.108;5.044;2023-02-28T10:09:57;5.50;;;4.07;;
48911;SDS011;34722;52.108;5.044;2023-02-28T10:12:27;6.93;;;4.00;;
48911;SDS011;34722;52.108;5.044;2023-02-28T10:14:56;6.22;;;3.65;;
48911;SDS011;34722;52.108;5.044;2023-02-28T10:17:25;5.32;;;4.03;;
48911;SDS011;34722;52.108;5.044;2023-02-28T10:19:58;5.45;;;3.50;;
48911;SDS011;34722;52.108;5.044;2023-02-28T10:22:37;5.57;;;3.90;;
48911;SDS011;34722;52.108;5.044;2023-02-28T10:25:05;4.85;;;3.47;;
48911;SDS011;34722;52.108;5.044;2023-02-28T10:27:45;3.10;;;2.88;;
48911;SDS011;34722;52.108;5.044;2023-02-28T10:30:11;3.10;;;2.80;;
48911;SDS011;34722;52.108;5.044;2023-02-28T10:32:39;3.55;;;2.58;;
48911;SDS011;34722;52.108;5.044;2023-02-28T10:37:50;4.68;;;3.65;;
48911;SDS011;34722;52.108;5.044;2023-02-28T10:42:55;3.92;;;3.40;;
48911;SDS011;34722;52.108;5.044;2023-02-28T10:45:22;4.70;;;3.22;;
48911;SDS011;34722;52.108;5.044;2023-02-28T10:50:26;4.25;;;3.28;;
48911;SDS011;34722;52.108;5.044;2023-02-28T11:01:18;3.45;;;3.25;;
48911;SDS011;34722;52.108;5.044;2023-02-28T11:03:46;8.80;;;3.97;;
48911;SDS011;34722;52.108;5.044;2023-02-28T11:06:22;4.07;;;3.38;;
48911;SDS011;34722;52.108;5.044;2023-02-28T11:08:55;4.38;;;3.53;;
48911;SDS011;34722;52.108;5.044;2023-02-28T11:11:24;5.28;;;3.83;;
48911;SDS011;34722;52.108;5.044;2023-02-28T11:13:56;4.13;;;3.35;;
48911;SDS011;34722;52.108;5.044;2023-02-28T11:16:32;5.30;;;4.35;;
48911;SDS011;34722;52.108;5.044;2023-02-28T11:19:22;3.78;;;3.42;;
48911;SDS011;34722;52.108;5.044;2023-02-28T11:21:59;4.38;;;3.65;;
48911;SDS011;34722;52.108;5.044;2023-02-28T11:24:28;3.95;;;3.58;;
48911;SDS011;34722;52.108;5.044;2023-02-28T11:26:57;3.58;;;3.28;;
48911;SDS011;34722;52.108;5.044;2023-02-28T11:29:27;3.53;;;3.22;;
48911;SDS011;34722;52.108;5.044;2023-02-28T11:32:04;3.47;;;3.22;;
48911;SDS011;34722;52.108;5.044;2023-02-28T11:38:17;4.18;;;3.72;;
48911;SDS011;34722;52.108;5.044;2023-02-28T11:41:13;4.30;;;3.90;;
48911;SDS011;34722;52.108;5.044;2023-02-28T11:44:05;8.18;;;3.80;;
48911;SDS011;34722;52.108;5.044;2023-02-28T11:53:01;4.88;;;3.50;;
48911;SDS011;34722;52.108;5.044;2023-02-28T12:06:33;4.00;;;3.60;;
48911;SDS011;34722;52.108;5.044;2023-02-28T12:17:38;3.88;;;3.58;;
48911;SDS011;34722;52.108;5.044;2023-02-28T12:29:19;4.70;;;3.55;;
48911;SDS011;34722;52.108;5.044;2023-02-28T12:31:56;4.13;;;3.40;;
48911;SDS011;34722;52.108;5.044;2023-02-28T12:34:31;5.13;;;3.67;;
48911;SDS011;34722;52.108;5.044;2023-02-28T12:37:01;8.15;;;3.38;;
48911;SDS011;34722;52.108;5.044;2023-02-28T12:39:34;3.92;;;3.60;;
48911;SDS011;34722;52.108;5.044;2023-02-28T12:42:13;6.85;;;3.70;;
48911;SDS011;34722;52.108;5.044;2023-02-28T12:48:01;3.67;;;3.25;;
48911;SDS011;34722;52.108;5.044;2023-02-28T12:50:30;3.45;;;3.00;;
48911;SDS011;34722;52.108;5.044;2023-02-28T12:55:35;4.38;;;3.45;;
48911;SDS011;34722;52.108;5.044;2023-02-28T12:58:13;3.42;;;2.95;;
48911;SDS011;34722;52.108;5.044;2023-02-28T13:04:16;5.75;;;3.70;;
48911;SDS011;34722;52.108;5.044;2023-02-28T13:10:11;3.80;;;3.50;;
48911;SDS011;34722;52.108;5.044;2023-02-28T13:12:51;4.60;;;4.20;;
48911;SDS011;34722;52.108;5.044;2023-02-28T13:17:50;3.20;;;3.00;;
48911;SDS011;34722;52.108;5.044;2023-02-28T13:22:49;4.47;;;3.28;;
48911;SDS011;34722;52.108;5.044;2023-02-28T13:28:02;6.93;;;3.35;;
48911;SDS011;34722;52.108;5.044;2023-02-28T13:36:06;4.45;;;3.97;;
48911;SDS011;34722;52.108;5.044;2023-02-28T13:38:34;4.38;;;3.35;;
48911;SDS011;34722;52.108;5.044;2023-02-28T13:41:47;4.47;;;3.78;;
48911;SDS011;34722;52.108;5.044;2023-02-28T13:46:35;5.25;;;3.28;;
48911;SDS011;34722;52.108;5.044;2023-02-28T14:06:15;4.05;;;3.42;;
48911;SDS011;34722;52.108;5.044;2023-02-28T14:11:42;4.22;;;3.80;;
48911;SDS011;34722;52.108;5.044;2023-02-28T14:14:09;6.13;;;3.47;;
48911;SDS011;34722;52.108;5.044;2023-02-28T14:17:01;4.32;;;3.80;;
48911;SDS011;34722;52.108;5.044;2023-02-28T14:19:30;5.95;;;3.70;;
48911;SDS011;34722;52.108;5.044;2023-02-28T14:32:33;6.45;;;3.92;;
48911;SDS011;34722;52.108;5.044;2023-02-28T14:38:17;3.88;;;3.50;;
48911;SDS011;34722;52.108;5.044;2023-02-28T14:40:53;6.32;;;3.63;;
48911;SDS011;34722;52.108;5.044;2023-02-28T14:43:23;4.38;;;3.50;;
48911;SDS011;34722;52.108;5.044;2023-02-28T14:45:55;3.90;;;3.50;;
48911;SDS011;34722;52.108;5.044;2023-02-28T14:48:23;5.63;;;3.90;;
48911;SDS011;34722;52.108;5.044;2023-02-28T14:50:57;5.43;;;3.90;;
48911;SDS011;34722;52.108;5.044;2023-02-28T14:53:35;4.25;;;3.40;;
48911;SDS011;34722;52.108;5.044;2023-02-28T14:59:03;5.13;;;3.42;;
48911;SDS011;34722;52.108;5.044;2023-02-28T15:01:30;3.88;;;3.45;;
48911;SDS011;34722;52.108;5.044;2023-02-28T15:03:59;5.78;;;3.88;;
48911;SDS011;34722;52.108;5.044;2023-02-28T15:06:28;5.15;;;3.42;;
48911;SDS011;34722;52.108;5.044;2023-02-28T15:11:55;5.10;;;3.92;;
48911;SDS011;34722;52.108;5.044;2023-02-28T15:14:21;7.22;;;3.75;;
48911;SDS011;34722;52.108;5.044;2023-02-28T15:16:49;6.30;;;3.63;;
48911;SDS011;34722;52.108;5.044;2023-02-28T15:19:22;6.38;;;3.90;;
48911;SDS011;34722;52.108;5.044;2023-02-28T15:21:59;4.63;;;3.40;;
48911;SDS011;34722;52.108;5.044;2023-02-28T15:24:39;6.47;;;3.97;;
48911;SDS011;34722;52.108;5.044;2023-02-28T15:27:16;5.65;;;4.13;;
48911;SDS011;34722;52.108;5.044;2023-02-28T15:29:50;4.68;;;3.67;;
48911;SDS011;34722;52.108;5.044;2023-02-28T15:34:55;4.80;;;3.70;;
48911;SDS011;34722;52.108;5.044;2023-02-28T15:40:04;7.30;;;3.50;;
48911;SDS011;34722;52.108;5.044;2023-02-28T15:42:36;3.92;;;3.53;;
48911;SDS011;34722;52.108;5.044;2023-02-28T15:45:02;6.25;;;3.53;;
48911;SDS011;34722;52.108;5.044;2023-02-28T15:47:29;3.75;;;3.30;;
48911;SDS011;34722;52.108;5.044;2023-02-28T15:49:59;7.20;;;3.92;;
48911;SDS011;34722;52.108;5.044;2023-02-28T15:52:40;7.95;;;3.80;;
48911;SDS011;34722;52.108;5.044;2023-02-28T15:55:27;3.60;;;3.30;;
48911;SDS011;34722;52.108;5.044;2023-02-28T15:57:55;3.38;;;2.90;;
48911;SDS011;34722;52.108;5.044;2023-02-28T16:00:25;3.70;;;3.35;;
48911;SDS011;34722;52.108;5.044;2023-02-28T16:02:53;4.22;;;3.20;;
48911;SDS011;34722;52.108;5.044;2023-02-28T16:05:21;3.72;;;3.13;;
48911;SDS011;34722;52.108;5.044;2023-02-28T16:07:56;4.35;;;3.38;;
48911;SDS011;34722;52.108;5.044;2023-02-28T16:10:27;4.90;;;3.80;;
48911;SDS011;34722;52.108;5.044;2023-02-28T16:12:54;4.00;;;3.50;;
48911;SDS011;34722;52.108;5.044;2023-02-28T16:15:26;4.82;;;3.53;;
48911;SDS011;34722;52.108;5.044;2023-02-28T16:17:56;3.90;;;3.50;;
48911;SDS011;34722;52.108;5.044;2023-02-28T16:20:23;6.50;;;3.30;;
48911;SDS011;34722;52.108;5.044;2023-02-28T16:22:51;5.28;;;3.58;;
48911;SDS011;34722;52.108;5.044;2023-02-28T16:25:18;5.47;;;3.47;;
48911;SDS011;34722;52.108;5.044;2023-02-28T16:27:47;5.05;;;3.80;;
48911;SDS011;34722;52.108;5.044;2023-02-28T16:30:16;6.28;;;3.45;;
48911;SDS011;34722;52.108;5.044;2023-02-28T16:32:54;5.55;;;3.88;;
48911;SDS011;34722;52.108;5.044;2023-02-28T16:35:21;5.65;;;3.90;;
48911;SDS011;34722;52.108;5.044;2023-02-28T16:37:47;5.30;;;3.72;;
48911;SDS011;34722;52.108;5.044;2023-02-28T16:40:23;5.95;;;3.60;;
48911;SDS011;34722;52.108;5.044;2023-02-28T16:42:57;4.65;;;3.40;;
48911;SDS011;34722;52.108;5.044;2023-02-28T16:45:26;5.22;;;3.47;;
48911;SDS011;34722;52.108;5.044;2023-02-28T16:47:53;4.55;;;3.63;;
48911;SDS011;34722;52.108;5.044;2023-02-28T16:50:23;6.72;;;3.50;;
48911;SDS011;34722;52.108;5.044;2023-02-28T16:52:50;4.50;;;3.90;;
48911;SDS011;34722;52.108;5.044;2023-02-28T16:55:19;7.07;;;3.83;;
48911;SDS011;34722;52.108;5.044;2023-02-28T16:57:53;3.88;;;3.30;;
48911;SDS011;34722;52.108;5.044;2023-02-28T17:00:20;5.82;;;3.90;;
48911;SDS011;34722;52.108;5.044;2023-02-28T17:02:46;4.50;;;4.05;;
48911;SDS011;34722;52.108;5.044;2023-02-28T17:05:12;5.95;;;3.88;;
48911;SDS011;34722;52.108;5.044;2023-02-28T17:07:40;5.35;;;3.60;;
48911;SDS011;34722;52.108;5.044;2023-02-28T17:10:14;5.55;;;4.18;;
48911;SDS011;34722;52.108;5.044;2023-02-28T17:12:45;4.93;;;3.85;;
48911;SDS011;34722;52.108;5.044;2023-02-28T17:15:12;6.40;;;4.63;;
48911;SDS011;34722;52.108;5.044;2023-02-28T17:17:39;6.30;;;4.22;;
48911;SDS011;34722;52.108;5.044;2023-02-28T17:20:06;6.80;;;4.68;;
48911;SDS011;34722;52.108;5.044;2023-02-28T17:22:36;7.13;;;4.88;;
48911;SDS011;34722;52.108;5.044;2023-02-28T17:25:01;7.10;;;5.57;;
48911;SDS011;34722;52.108;5.044;2023-02-28T17:27:28;6.70;;;4.65;;
48911;SDS011;34722;52.108;5.044;2023-02-28T17:30:25;6.28;;;4.82;;
48911;SDS011;34722;52.108;5.044;2023-02-28T17:32:55;10.60;;;5.32;;
48911;SDS011;34722;52.108;5.044;2023-02-28T17:35:21;11.23;;;5.88;;
48911;SDS011;34722;52.108;5.044;2023-02-28T17:37:47;5.95;;;5.05;;
48911;SDS011;34722;52.108;5.044;2023-02-28T17:40:18;11.07;;;6.35;;
48911;SDS011;34722;52.108;5.044;2023-02-28T17:42:45;7.10;;;5.15;;
48911;SDS011;34722;52.108;5.044;2023-02-28T17:45:11;9.23;;;5.22;;
48911;SDS011;34722;52.108;5.044;2023-02-28T17:47:38;9.75;;;5.70;;
48911;SDS011;34722;52.108;5.044;2023-02-28T17:50:04;7.45;;;4.60;;
48911;SDS011;34722;52.108;5.044;2023-02-28T17:52:30;7.50;;;4.78;;
48911;SDS011;34722;52.108;5.044;2023-02-28T17:55:02;12.80;;;4.68;;
48911;SDS011;34722;52.108;5.044;2023-02-28T17:57:28;7.43;;;5.13;;
48911;SDS011;34722;52.108;5.044;2023-02-28T17:59:55;6.53;;;4.55;;
48911;SDS011;34722;52.108;5.044;2023-02-28T18:02:20;9.15;;;6.10;;
48911;SDS011;34722;52.108;5.044;2023-02-28T18:04:46;6.82;;;4.85;;
48911;SDS011;34722;52.108;5.044;2023-02-28T18:07:12;7.00;;;5.07;;
48911;SDS011;34722;52.108;5.044;2023-02-28T18:09:38;5.97;;;4.45;;
48911;SDS011;34722;52.108;5.044;2023-02-28T18:12:03;6.82;;;5.05;;
48911;SDS011;34722;52.108;5.044;2023-02-28T18:14:29;5.65;;;4.88;;
48911;SDS011;34722;52.108;5.044;2023-02-28T18:16:55;5.35;;;4.53;;
48911;SDS011;34722;52.108;5.044;2023-02-28T18:19:21;7.20;;;5.15;;
48911;SDS011;34722;52.108;5.044;2023-02-28T18:21:48;8.52;;;5.32;;
48911;SDS011;34722;52.108;5.044;2023-02-28T18:24:16;9.02;;;5.35;;
48911;SDS011;34722;52.108;5.044;2023-02-28T18:26:43;9.48;;;6.20;;
48911;SDS011;34722;52.108;5.044;2023-02-28T18:29:14;9.15;;;5.78;;
48911;SDS011;34722;52.108;5.044;2023-02-28T18:31:42;9.52;;;5.65;;
48911;SDS011;34722;52.108;5.044;2023-02-28T18:34:07;17.02;;;5.82;;
48911;SDS011;34722;52.108;5.044;2023-02-28T18:36:33;12.43;;;6.20;;
48911;SDS011;34722;52.108;5.044;2023-02-28T18:38:59;11.88;;;6.63;;
48911;SDS011;34722;52.108;5.044;2023-02-28T18:41:25;12.70;;;6.88;;
48911;SDS011;34722;52.108;5.044;2023-02-28T18:43:52;10.60;;;5.72;;
48911;SDS011;34722;52.108;5.044;2023-02-28T18:46:18;13.40;;;6.85;;
48911;SDS011;34722;52.108;5.044;2023-02-28T18:48:45;9.23;;;6.63;;
48911;SDS011;34722;52.108;5.044;2023-02-28T18:51:22;11.02;;;7.00;;
48911;SDS011;34722;52.108;5.044;2023-02-28T18:53:49;9.35;;;5.70;;
48911;SDS011;34722;52.108;5.044;2023-02-28T18:56:16;12.00;;;7.03;;
48911;SDS011;34722;52.108;5.044;2023-02-28T18:58:43;11.65;;;7.20;;
48911;SDS011;34722;52.108;5.044;2023-02-28T19:01:20;11.20;;;7.13;;
48911;SDS011;34722;52.108;5.044;2023-02-28T19:03:47;13.70;;;7.22;;
48911;SDS011;34722;52.108;5.044;2023-02-28T19:06:14;16.02;;;8.10;;
48911;SDS011;34722;52.108;5.044;2023-02-28T19:08:41;14.43;;;8.10;;
48911;SDS011;34722;52.108;5.044;2023-02-28T19:11:14;12.57;;;7.78;;
48911;SDS011;34722;52.108;5.044;2023-02-28T19:13:42;14.50;;;7.95;;
48911;SDS011;34722;52.108;5.044;2023-02-28T19:16:09;16.80;;;8.55;;
48911;SDS011;34722;52.108;5.044;2023-02-28T19:18:36;16.88;;;8.57;;
48911;SDS011;34722;52.108;5.044;2023-02-28T19:21:01;16.92;;;9.05;;
48911;SDS011;34722;52.108;5.044;2023-02-28T19:23:30;14.32;;;9.10;;
48911;SDS011;34722;52.108;5.044;2023-02-28T19:25:56;14.52;;;8.25;;
48911;SDS011;34722;52.108;5.044;2023-02-28T19:28:22;13.40;;;8.73;;
48911;SDS011;34722;52.108;5.044;2023-02-28T19:30:48;15.10;;;8.85;;
48911;SDS011;34722;52.108;5.044;2023-02-28T19:33:17;19.13;;;9.35;;
48911;SDS011;34722;52.108;5.044;2023-02-28T19:35:44;15.48;;;10.02;;
48911;SDS011;34722;52.108;5.044;2023-02-28T19:38:09;14.02;;;9.00;;
48911;SDS011;34722;52.108;5.044;2023-02-28T19:40:35;18.38;;;10.43;;
48911;SDS011;34722;52.108;5.044;2023-02-28T19:43:01;21.35;;;10.82;;
48911;SDS011;34722;52.108;5.044;2023-02-28T19:45:27;16.08;;;9.82;;
48911;SDS011;34722;52.108;5.044;2023-02-28T19:47:53;20.48;;;10.82;;
48911;SDS011;34722;52.108;5.044;2023-02-28T19:50:19;17.63;;;10.75;;
48911;SDS011;34722;52.108;5.044;2023-02-28T19:52:46;16.80;;;10.95;;
48911;SDS011;34722;52.108;5.044;2023-02-28T19:55:13;19.08;;;11.32;;
48911;SDS011;34722;52.108;5.044;2023-02-28T19:57:40;19.83;;;11.55;;
48911;SDS011;34722;52.108;5.044;2023-02-28T20:00:07;17.98;;;11.13;;
48911;SDS011;34722;52.108;5.044;2023-02-28T20:02:34;21.83;;;12.52;;
48911;SDS011;34722;52.108;5.044;2023-02-28T20:05:01;21.33;;;11.60;;
48911;SDS011;34722;52.108;5.044;2023-02-28T20:07:26;19.40;;;11.68;;
48911;SDS011;34722;52.108;5.044;2023-02-28T20:09:52;25.35;;;12.75;;
48911;SDS011;34722;52.108;5.044;2023-02-28T20:12:18;25.23;;;13.25;;
48911;SDS011;34722;52.108;5.044;2023-02-28T20:14:47;23.40;;;12.70;;
48911;SDS011;34722;52.108;5.044;2023-02-28T20:17:13;25.23;;;12.70;;
48911;SDS011;34722;52.108;5.044;2023-02-28T20:19:39;29.77;;;13.02;;
48911;SDS011;34722;52.108;5.044;2023-02-28T20:22:04;22.88;;;13.23;;
48911;SDS011;34722;52.108;5.044;2023-02-28T20:24:32;26.52;;;13.43;;
48911;SDS011;34722;52.108;5.044;2023-02-28T20:26:57;25.83;;;13.75;;
48911;SDS011;34722;52.108;5.044;2023-02-28T20:29:23;19.83;;;12.90;;
48911;SDS011;34722;52.108;5.044;2023-02-28T20:31:48;28.60;;;14.82;;
48911;SDS011;34722;52.108;5.044;2023-02-28T20:34:17;26.38;;;15.13;;
48911;SDS011;34722;52.108;5.044;2023-02-28T20:36:43;25.50;;;13.52;;
48911;SDS011;34722;52.108;5.044;2023-02-28T20:39:10;24.95;;;12.73;;
48911;SDS011;34722;52.108;5.044;2023-02-28T20:41:35;26.80;;;14.63;;
48911;SDS011;34722;52.108;5.044;2023-02-28T20:44:01;23.48;;;14.10;;
48911;SDS011;34722;52.108;5.044;2023-02-28T20:46:27;21.85;;;13.02;;
48911;SDS011;34722;52.108;5.044;2023-02-28T20:48:54;26.08;;;14.15;;
48911;SDS011;34722;52.108;5.044;2023-02-28T20:51:21;28.08;;;15.18;;
48911;SDS011;34722;52.108;5.044;2023-02-28T20:53:47;25.83;;;13.85;;
48911;SDS011;34722;52.108;5.044;2023-02-28T20:56:13;24.88;;;14.27;;
48911;SDS011;34722;52.108;5.044;2023-02-28T20:58:41;24.48;;;14.32;;
48911;SDS011;34722;52.108;5.044;2023-02-28T21:03:45;24.83;;;14.25;;
48911;SDS011;34722;52.108;5.044;2023-02-28T21:06:16;26.73;;;15.05;;
48911;SDS011;34722;52.108;5.044;2023-02-28T21:08:43;28.15;;;15.90;;
48911;SDS011;34722;52.108;5.044;2023-02-28T21:11:10;31.88;;;15.98;;
48911;SDS011;34722;52.108;5.044;2023-02-28T21:13:47;30.33;;;14.90;;
48911;SDS011;34722;52.108;5.044;2023-02-28T21:16:15;30.80;;;15.40;;
48911;SDS011;34722;52.108;5.044;2023-02-28T21:18:43;27.63;;;15.50;;
48911;SDS011;34722;52.108;5.044;2023-02-28T21:21:12;29.92;;;15.68;;
48911;SDS011;34722;52.108;5.044;2023-02-28T21:23:42;32.08;;;16.60;;
48911;SDS011;34722;52.108;5.044;2023-02-28T21:26:12;30.77;;;16.27;;
48911;SDS011;34722;52.108;5.044;2023-02-28T21:28:43;28.75;;;15.93;;
48911;SDS011;34722;52.108;5.044;2023-02-28T21:31:16;34.05;;;16.20;;
48911;SDS011;34722;52.108;5.044;2023-02-28T21:33:43;33.25;;;17.10;;
48911;SDS011;34722;52.108;5.044;2023-02-28T21:36:14;30.67;;;17.52;;
48911;SDS011;34722;52.108;5.044;2023-02-28T21:38:42;31.40;;;17.80;;
48911;SDS011;34722;52.108;5.044;2023-02-28T21:41:13;30.25;;;17.13;;
48911;SDS011;34722;52.108;5.044;2023-02-28T21:43:40;34.00;;;17.23;;
48911;SDS011;34722;52.108;5.044;2023-02-28T21:46:12;36.63;;;17.35;;
48911;SDS011;34722;52.108;5.044;2023-02-28T21:48:40;32.65;;;17.85;;
48911;SDS011;34722;52.108;5.044;2023-02-28T21:51:06;38.08;;;18.10;;
48911;SDS011;34722;52.108;5.044;2023-02-28T21:53:37;35.97;;;18.70;;
48911;SDS011;34722;52.108;5.044;2023-02-28T21:56:05;33.45;;;16.70;;
48911;SDS011;34722;52.108;5.044;2023-02-28T21:58:37;39.20;;;18.50;;
48911;SDS011;34722;52.108;5.044;2023-02-28T22:01:09;37.30;;;18.05;;
48911;SDS011;34722;52.108;5.044;2023-02-28T22:03:36;37.28;;;18.20;;
48911;SDS011;34722;52.108;5.044;2023-02-28T22:06:09;42.53;;;19.75;;
48911;SDS011;34722;52.108;5.044;2023-02-28T22:08:36;38.42;;;19.80;;
48911;SDS011;34722;52.108;5.044;2023-02-28T22:11:03;38.33;;;19.42;;
48911;SDS011;34722;52.108;5.044;2023-02-28T22:13:30;34.63;;;19.30;;
48911;SDS011;34722;52.108;5.044;2023-02-28T22:16:00;36.28;;;19.58;;
48911;SDS011;34722;52.108;5.044;2023-02-28T22:18:33;42.40;;;19.25;;
48911;SDS011;34722;52.108;5.044;2023-02-28T22:20:59;37.45;;;19.85;;
48911;SDS011;34722;52.108;5.044;2023-02-28T22:23:26;39.75;;;19.23;;
48911;SDS011;34722;52.108;5.044;2023-02-28T22:25:52;41.83;;;20.30;;
48911;SDS011;34722;52.108;5.044;2023-02-28T22:28:19;40.65;;;20.90;;
48911;SDS011;34722;52.108;5.044;2023-02-28T22:30:46;42.25;;;20.33;;
48911;SDS011;34722;52.108;5.044;2023-02-28T22:33:12;46.75;;;22.65;;
48911;SDS011;34722;52.108;5.044;2023-02-28T22:35:39;41.70;;;20.63;;
48911;SDS011;34722;52.108;5.044;2023-02-28T22:38:05;53.47;;;21.63;;
48911;SDS011;34722;52.108;5.044;2023-02-28T22:40:31;46.10;;;21.83;;
48911;SDS011;34722;52.108;5.044;2023-02-28T22:42:57;46.17;;;21.42;;
48911;SDS011;34722;52.108;5.044;2023-02-28T22:45:23;47.55;;;22.42;;
48911;SDS011;34722;52.108;5.044;2023-02-28T22:47:48;43.00;;;20.25;;
48911;SDS011;34722;52.108;5.044;2023-02-28T22:50:14;41.40;;;21.30;;
48911;SDS011;34722;52.108;5.044;2023-02-28T22:52:40;42.22;;;20.85;;
48911;SDS011;34722;52.108;5.044;2023-02-28T22:55:07;44.78;;;22.63;;
48911;SDS011;34722;52.108;5.044;2023-02-28T22:57:33;42.65;;;22.27;;
48911;SDS011;34722;52.108;5.044;2023-02-28T22:59:59;44.55;;;21.70;;
48911;SDS011;34722;52.108;5.044;2023-02-28T23:02:25;43.70;;;20.50;;
48911;SDS011;34722;52.108;5.044;2023-02-28T23:04:53;42.47;;;20.77;;
48911;SDS011;34722;52.108;5.044;2023-02-28T23:07:19;39.65;;;20.50;;
48911;SDS011;34722;52.108;5.044;2023-02-28T23:09:45;39.25;;;20.02;;
48911;SDS011;34722;52.108;5.044;2023-02-28T23:12:14;43.75;;;20.38;;
48911;SDS011;34722;52.108;5.044;2023-02-28T23:14:40;47.20;;;22.02;;
48911;SDS011;34722;52.108;5.044;2023-02-28T23:17:07;45.50;;;21.40;;
48911;SDS011;34722;52.108;5.044;2023-02-28T23:19:33;43.80;;;21.00;;
48911;SDS011;34722;52.108;5.044;2023-02-28T23:22:00;46.58;;;20.95;;
48911;SDS011;34722;52.108;5.044;2023-02-28T23:24:27;42.75;;;20.33;;
48911;SDS011;34722;52.108;5.044;2023-02-28T23:26:55;40.67;;;20.00;;
48911;SDS011;34722;52.108;5.044;2023-02-28T23:29:23;43.40;;;21.08;;
48911;SDS011;34722;52.108;5.044;2023-02-28T23:31:49;43.17;;;22.23;;
48911;SDS011;34722;52.108;5.044;2023-02-28T23:34:16;49.22;;;20.58;;
48911;SDS011;34722;52.108;5.044;2023-02-28T23:36:48;40.20;;;19.92;;
48911;SDS011;34722;52.108;5.044;2023-02-28T23:39:15;43.92;;;21.20;;
48911;SDS011;34722;52.108;5.044;2023-02-28T23:41:41;43.97;;;21.48;;
48911;SDS011;34722;52.108;5.044;2023-02-28T23:44:07;49.25;;;21.70;;
48911;SDS011;34722;52.108;5.044;2023-02-28T23:46:40;46.00;;;21.27;;
48911;SDS011;34722;52.108;5.044;2023-02-28T23:49:10;52.33;;;23.92;;
48911;SDS011;34722;52.108;5.044;2023-02-28T23:51:37;47.92;;;20.95;;
48911;SDS011;34722;52.108;5.044;2023-02-28T23:54:02;51.28;;;22.63;;
48911;SDS011;34722;52.108;5.044;2023-02-28T23:56:30;42.67;;;21.58;;
48911;SDS011;34722;52.108;5.044;2023-02-28T23:58:56;46.75;;;21.95;;
